createdAt,value
2022-11-24T00:00:47.182Z,76.89
2022-11-24T00:03:18.604Z,78.28
2022-11-24T00:05:50.339Z,77.97
2022-11-24T00:08:22.159Z,78.18
2022-11-24T00:10:53.483Z,78.72
2022-11-24T00:13:24.866Z,79.16
2022-11-24T00:15:56.257Z,80.15
2022-11-24T00:18:27.616Z,79.77
2022-11-24T00:20:59.223Z,80.00
2022-11-24T00:23:30.879Z,80.05
2022-11-24T00:26:20.506Z,80.19
2022-11-24T00:28:54.290Z,80.81
2022-11-24T00:31:27.029Z,81.17
2022-11-24T00:34:01.342Z,80.78
2022-11-24T00:36:34.945Z,81.23
2022-11-24T00:39:09.142Z,81.09
2022-11-24T00:41:41.556Z,81.19
2022-11-24T00:44:13.048Z,82.28
2022-11-24T00:46:44.511Z,80.33
2022-11-24T00:49:16.021Z,77.52
2022-11-24T00:51:48.028Z,76.56
2022-11-24T00:54:20.008Z,76.20
2022-11-24T00:56:51.702Z,76.27
2022-11-24T00:59:23.415Z,75.93
2022-11-24T01:01:54.691Z,77.55
2022-11-24T01:04:26.352Z,75.87
2022-11-24T01:06:57.653Z,78.10
2022-11-24T01:09:28.963Z,76.04
2022-11-24T01:12:03.080Z,76.12
2022-11-24T01:14:35.392Z,75.48
2022-11-24T01:17:07.142Z,75.62
2022-11-24T01:19:38.962Z,75.96
2022-11-24T01:22:10.769Z,75.93
2022-11-24T01:24:42.932Z,75.87
2022-11-24T01:27:14.599Z,76.03
2022-11-24T01:29:46.363Z,75.88
2022-11-24T01:32:17.734Z,75.95
2022-11-24T01:34:49.155Z,75.67
2022-11-24T01:37:20.798Z,76.32
2022-11-24T01:39:52.124Z,75.99
2022-11-24T01:42:23.818Z,75.75
2022-11-24T01:45:33.105Z,76.29
2022-11-24T01:48:14.431Z,76.32
2022-11-24T01:50:46.901Z,75.76
2022-11-24T01:53:18.578Z,75.88
2022-11-24T01:55:50.941Z,75.69
2022-11-24T01:58:26.672Z,75.46
2022-11-24T02:00:58.969Z,76.52
2022-11-24T02:03:37.375Z,76.57
2022-11-24T02:06:08.810Z,76.74
2022-11-24T02:08:55.522Z,77.23
2022-11-24T02:11:31.424Z,76.57
2022-11-24T02:14:03.855Z,76.38
2022-11-24T02:16:36.385Z,78.72
2022-11-24T02:19:32.725Z,77.06
2022-11-24T02:22:06.153Z,76.84
2022-11-24T02:25:03.286Z,78.10
2022-11-24T02:27:34.795Z,76.31
2022-11-24T02:30:06.866Z,76.55
2022-11-24T02:32:42.536Z,76.68
2022-11-24T02:35:16.140Z,76.20
2022-11-24T02:37:47.567Z,76.19
2022-11-24T02:40:26.359Z,76.10
2022-11-24T02:43:05.936Z,76.49
2022-11-24T02:45:37.564Z,76.17
2022-11-24T02:48:09.076Z,78.19
2022-11-24T02:50:40.430Z,76.35
2022-11-24T02:53:11.797Z,75.81
2022-11-24T02:55:43.308Z,76.12
2022-11-24T02:58:16.579Z,76.01
2022-11-24T03:00:48.645Z,75.75
2022-11-24T03:03:20.185Z,75.54
2022-11-24T03:05:52.252Z,75.48
2022-11-24T03:08:23.630Z,75.74
2022-11-24T03:10:56.026Z,75.71
2022-11-24T03:13:27.396Z,75.22
2022-11-24T03:15:59.236Z,75.04
2022-11-24T03:18:30.667Z,75.13
2022-11-24T03:21:02.616Z,75.17
2022-11-24T03:23:34.073Z,74.64
2022-11-24T03:26:16.926Z,74.59
2022-11-24T03:28:48.450Z,74.32
2022-11-24T03:31:20.034Z,74.69
2022-11-24T03:33:52.220Z,74.63
2022-11-24T03:36:23.840Z,74.35
2022-11-24T03:38:55.497Z,74.23
2022-11-24T03:41:26.768Z,75.77
2022-11-24T03:43:58.030Z,74.34
2022-11-24T03:46:29.477Z,74.43
2022-11-24T03:49:01.049Z,74.31
2022-11-24T03:51:32.580Z,73.98
2022-11-24T03:54:04.415Z,74.43
2022-11-24T03:56:36.074Z,74.06
2022-11-24T03:59:07.629Z,74.31
2022-11-24T04:01:39.229Z,74.31
2022-11-24T04:04:14.000Z,74.47
2022-11-24T04:06:45.561Z,74.07
2022-11-24T04:09:16.752Z,75.72
2022-11-24T04:12:06.271Z,74.78
2022-11-24T04:14:38.341Z,74.20
2022-11-24T04:17:09.989Z,73.95
2022-11-24T04:19:41.635Z,74.04
2022-11-24T04:22:14.076Z,73.96
2022-11-24T04:24:45.391Z,74.08
2022-11-24T04:27:18.416Z,74.15
2022-11-24T04:29:50.034Z,74.32
2022-11-24T04:32:21.464Z,74.68
2022-11-24T04:34:53.119Z,74.43
2022-11-24T04:37:24.655Z,74.78
2022-11-24T04:39:56.768Z,74.95
2022-11-24T04:42:27.609Z,75.80
2022-11-24T04:44:59.116Z,74.55
2022-11-24T04:47:30.524Z,74.96
2022-11-24T04:50:02.120Z,74.35
2022-11-24T04:52:33.619Z,74.15
2022-11-24T04:55:05.617Z,74.46
2022-11-24T04:57:36.504Z,74.68
2022-11-24T05:00:08.999Z,74.00
2022-11-24T05:02:40.494Z,73.57
2022-11-24T05:05:12.327Z,73.65
2022-11-24T05:07:43.746Z,73.26
2022-11-24T05:10:33.221Z,73.53
2022-11-24T05:13:08.311Z,73.53
2022-11-24T05:15:41.271Z,73.43
2022-11-24T05:18:20.100Z,73.33
2022-11-24T05:20:51.586Z,74.05
2022-11-24T05:23:23.034Z,74.13
2022-11-24T05:25:55.021Z,73.75
2022-11-24T05:28:25.844Z,74.58
2022-11-24T05:31:00.550Z,73.63
2022-11-24T05:33:34.750Z,73.77
2022-11-24T05:36:08.346Z,73.70
2022-11-24T05:38:39.906Z,74.28
2022-11-24T05:41:11.381Z,73.87
2022-11-24T05:43:42.759Z,74.11
2022-11-24T05:46:14.390Z,74.10
2022-11-24T05:48:46.444Z,74.26
2022-11-24T05:51:17.933Z,74.42
2022-11-24T05:53:49.296Z,74.60
2022-11-24T05:56:20.855Z,75.24
2022-11-24T05:58:52.452Z,74.53
2022-11-24T06:01:24.409Z,74.42
2022-11-24T06:03:55.728Z,74.27
2022-11-24T06:06:27.134Z,74.29
2022-11-24T06:08:58.416Z,74.83
2022-11-24T06:11:29.835Z,75.80
2022-11-24T06:14:01.075Z,74.71
2022-11-24T06:16:32.630Z,74.71
2022-11-24T06:19:04.237Z,74.87
2022-11-24T06:21:35.601Z,74.44
2022-11-24T06:24:07.555Z,74.74
2022-11-24T06:26:38.988Z,74.45
2022-11-24T06:29:10.802Z,75.01
2022-11-24T06:31:42.398Z,74.54
2022-11-24T06:34:15.539Z,74.67
2022-11-24T06:36:47.263Z,75.00
2022-11-24T06:39:18.750Z,74.55
2022-11-24T06:41:51.963Z,75.59
2022-11-24T06:44:24.078Z,74.51
2022-11-24T06:46:55.641Z,74.70
2022-11-24T06:49:27.356Z,74.24
2022-11-24T06:51:58.846Z,75.76
2022-11-24T06:54:30.200Z,74.64
2022-11-24T06:57:02.543Z,75.10
2022-11-24T06:59:34.329Z,74.99
2022-11-24T07:02:05.809Z,75.13
2022-11-24T07:04:37.497Z,74.62
2022-11-24T07:07:09.213Z,75.16
2022-11-24T07:09:40.640Z,74.52
2022-11-24T07:12:12.176Z,74.86
2022-11-24T07:14:43.916Z,74.79
2022-11-24T07:17:15.295Z,74.82
2022-11-24T07:19:46.953Z,74.56
2022-11-24T07:22:18.342Z,75.28
2022-11-24T07:24:50.144Z,74.96
2022-11-24T07:27:22.322Z,74.83
2022-11-24T07:29:53.735Z,74.52
2022-11-24T07:32:25.239Z,74.98
2022-11-24T07:34:56.532Z,74.74
2022-11-24T07:37:31.575Z,74.92
2022-11-24T07:40:03.772Z,74.57
2022-11-24T07:42:35.428Z,74.91
2022-11-24T07:45:07.203Z,75.02
2022-11-24T07:47:40.690Z,75.68
2022-11-24T07:50:13.120Z,74.65
2022-11-24T07:52:44.463Z,74.79
2022-11-24T07:55:16.088Z,75.11
2022-11-24T07:57:47.423Z,74.69
2022-11-24T08:00:19.473Z,75.09
2022-11-24T08:02:51.300Z,74.97
2022-11-24T08:05:23.007Z,74.58
2022-11-24T08:07:54.134Z,75.61
2022-11-24T08:10:25.635Z,74.96
2022-11-24T08:12:56.926Z,75.67
2022-11-24T08:15:28.224Z,74.83
2022-11-24T08:18:04.203Z,74.54
2022-11-24T08:20:35.722Z,74.56
2022-11-24T08:23:07.412Z,74.92
2022-11-24T08:25:39.038Z,74.64
2022-11-24T08:28:10.516Z,74.61
2022-11-24T08:30:41.994Z,74.53
2022-11-24T08:33:14.359Z,74.50
2022-11-24T08:35:45.816Z,74.69
2022-11-24T08:38:18.822Z,74.33
2022-11-24T08:40:53.347Z,74.43
2022-11-24T08:43:24.902Z,74.32
2022-11-24T08:45:56.228Z,75.88
2022-11-24T08:48:27.523Z,74.86
2022-11-24T08:51:00.345Z,74.86
2022-11-24T08:53:31.726Z,74.53
2022-11-24T08:56:03.417Z,75.70
2022-11-24T08:58:35.546Z,74.54
2022-11-24T09:01:08.062Z,74.29
2022-11-24T09:03:44.993Z,74.41
2022-11-24T09:06:26.775Z,74.56
2022-11-24T09:08:58.719Z,74.79
2022-11-24T09:11:29.643Z,75.85
2022-11-24T09:14:01.044Z,74.81
2022-11-24T09:16:32.452Z,75.02
2022-11-24T09:19:06.681Z,74.69
2022-11-24T09:21:41.357Z,75.19
2022-11-24T09:24:13.047Z,75.88
2022-11-24T09:26:47.607Z,75.94
2022-11-24T09:29:19.458Z,76.05
2022-11-24T09:31:51.760Z,76.08
2022-11-24T09:34:23.776Z,76.49
2022-11-24T09:36:54.715Z,77.18
2022-11-24T09:39:26.616Z,76.93
2022-11-24T09:42:38.715Z,76.60
2022-11-24T09:45:49.322Z,77.77
2022-11-24T09:48:52.516Z,76.89
2022-11-24T09:51:32.970Z,76.47
2022-11-24T09:54:11.971Z,76.83
2022-11-24T09:56:44.933Z,76.97
2022-11-24T09:59:21.485Z,77.01
2022-11-24T10:01:54.544Z,76.84
2022-11-24T10:04:30.073Z,76.88
2022-11-24T10:07:14.202Z,76.68
2022-11-24T10:10:15.756Z,77.12
2022-11-24T10:13:08.036Z,77.00
2022-11-24T10:15:45.849Z,77.51
2022-11-24T10:18:36.188Z,77.23
2022-11-24T10:21:46.181Z,78.14
2022-11-24T10:24:39.059Z,77.49
2022-11-24T10:27:22.570Z,77.77
2022-11-24T10:29:57.255Z,77.61
2022-11-24T10:32:38.794Z,77.44
2022-11-24T10:35:23.944Z,77.21
2022-11-24T10:37:58.674Z,76.71
2022-11-24T10:40:56.425Z,76.59
2022-11-24T10:43:30.246Z,76.61
2022-11-24T10:46:17.464Z,76.70
2022-11-24T10:49:00.869Z,76.43
2022-11-24T10:52:07.447Z,76.53
2022-11-24T10:54:55.140Z,76.65
2022-11-24T10:57:37.618Z,76.70
2022-11-24T11:00:22.142Z,76.22
2022-11-24T11:03:12.819Z,76.52
2022-11-24T11:05:50.159Z,76.30
2022-11-24T11:08:28.365Z,76.25
2022-11-24T11:11:31.425Z,76.77
2022-11-24T11:14:05.817Z,76.32
2022-11-24T11:16:39.660Z,76.66
2022-11-24T11:19:49.118Z,76.59
2022-11-24T11:22:32.725Z,76.45
2022-11-24T11:25:05.836Z,76.38
2022-11-24T11:27:38.529Z,76.58
2022-11-24T11:36:18.599Z,76.50
2022-11-24T11:38:50.616Z,76.11
2022-11-24T11:41:36.567Z,76.17
2022-11-24T11:44:44.028Z,76.45
2022-11-24T11:47:30.423Z,76.13
2022-11-24T11:50:01.903Z,76.18
2022-11-24T11:53:10.038Z,76.63
2022-11-24T11:55:45.204Z,76.58
2022-11-24T11:59:04.058Z,76.08
2022-11-24T12:02:09.785Z,76.80
2022-11-24T12:05:03.995Z,76.61
2022-11-24T12:07:48.024Z,75.89
2022-11-24T12:10:34.838Z,76.05
2022-11-24T12:13:24.604Z,77.03
2022-11-24T12:16:01.113Z,78.28
2022-11-24T12:18:58.733Z,78.32
2022-11-24T12:22:01.864Z,79.18
2022-11-24T12:24:33.381Z,79.41
2022-11-24T12:27:22.895Z,79.36
2022-11-24T12:30:05.632Z,79.67
2022-11-24T12:32:52.108Z,80.28
2022-11-24T12:35:45.143Z,80.85
2022-11-24T12:38:32.708Z,80.46
2022-11-24T12:41:33.783Z,81.14
2022-11-24T12:44:01.950Z,80.51
2022-11-24T12:46:45.837Z,81.14
2022-11-24T12:49:51.457Z,81.40
2022-11-24T12:52:31.889Z,81.50
2022-11-24T12:55:05.400Z,81.08
2022-11-24T12:57:45.764Z,80.96
2022-11-24T13:00:27.326Z,81.15
2022-11-24T13:03:17.067Z,80.69
2022-11-24T13:06:12.130Z,80.59
2022-11-24T13:08:43.855Z,80.40
2022-11-24T13:11:37.336Z,80.55
2022-11-24T13:14:34.225Z,81.17
2022-11-24T13:17:38.362Z,81.03
2022-11-24T13:20:23.212Z,82.19
2022-11-24T13:23:09.548Z,82.09
2022-11-24T13:26:03.479Z,82.65
2022-11-24T13:29:12.965Z,82.98
2022-11-24T13:31:57.384Z,83.23
2022-11-24T13:34:44.615Z,82.85
2022-11-24T13:37:41.905Z,82.95
2022-11-24T13:40:19.204Z,82.68
2022-11-24T13:43:01.834Z,82.56
2022-11-24T13:45:44.633Z,83.08
2022-11-24T13:48:23.304Z,83.22
2022-11-24T13:50:58.267Z,83.37
2022-11-24T13:53:43.533Z,83.84
2022-11-24T13:56:15.311Z,83.82
2022-11-24T13:59:20.264Z,83.48
2022-11-24T14:02:00.118Z,83.07
2022-11-24T14:04:35.299Z,83.38
2022-11-24T14:07:13.821Z,83.82
2022-11-24T14:09:50.416Z,84.03
2022-11-24T14:12:27.564Z,82.94
2022-11-24T14:15:25.060Z,80.91
2022-11-24T14:17:58.783Z,80.23
2022-11-24T14:20:30.597Z,79.45
2022-11-24T14:23:03.323Z,77.96
2022-11-24T14:25:36.708Z,77.12
2022-11-24T14:28:27.923Z,76.50
2022-11-24T14:31:24.683Z,74.89
2022-11-24T14:34:18.960Z,74.64
2022-11-24T14:36:52.254Z,73.40
2022-11-24T14:39:26.381Z,73.33
2022-11-24T14:42:06.915Z,73.43
2022-11-24T14:44:55.812Z,72.90
2022-11-24T14:47:32.889Z,72.04
2022-11-24T14:50:25.374Z,72.08
2022-11-24T14:53:00.500Z,70.78
2022-11-24T14:55:40.840Z,70.28
2022-11-24T14:58:41.746Z,69.54
2022-11-24T15:01:36.638Z,69.42
2022-11-24T15:07:30.864Z,68.04
2022-11-24T15:10:07.373Z,67.48
2022-11-24T15:12:50.312Z,66.75
2022-11-24T15:15:24.909Z,67.44
2022-11-24T15:18:00.313Z,65.78
2022-11-24T15:20:43.882Z,66.07
2022-11-24T15:23:30.455Z,66.50
2022-11-24T15:26:04.728Z,66.63
2022-11-24T15:28:37.961Z,66.13
2022-11-24T15:31:14.547Z,66.31
2022-11-24T15:33:48.132Z,65.78
2022-11-24T15:36:21.570Z,65.66
2022-11-24T15:38:53.787Z,64.88
2022-11-24T15:41:31.560Z,65.00
2022-11-24T15:44:03.578Z,64.70
2022-11-24T15:46:40.073Z,65.10
2022-11-24T15:49:11.485Z,66.13
2022-11-24T15:51:46.375Z,70.04
2022-11-24T15:54:20.564Z,68.86
2022-11-24T15:56:52.036Z,68.01
2022-11-24T15:59:23.800Z,67.30
2022-11-24T16:01:55.083Z,67.09
2022-11-24T16:04:26.505Z,65.61
2022-11-24T16:07:00.816Z,65.04
2022-11-24T16:09:32.910Z,65.01
2022-11-24T16:12:05.358Z,63.98
2022-11-24T16:14:38.151Z,66.76
2022-11-24T16:17:10.034Z,66.62
2022-11-24T16:19:43.065Z,65.37
2022-11-24T16:22:14.589Z,65.16
2022-11-24T16:24:46.211Z,64.45
2022-11-24T16:27:17.635Z,64.57
2022-11-24T16:29:49.007Z,65.42
2022-11-24T16:32:20.593Z,65.42
2022-11-24T16:34:52.940Z,64.65
2022-11-24T16:37:24.475Z,64.30
2022-11-24T16:39:56.127Z,63.93
2022-11-24T16:42:28.092Z,63.56
2022-11-24T16:44:59.581Z,63.68
2022-11-24T16:47:31.104Z,62.98
2022-11-24T16:50:02.814Z,62.19
2022-11-24T16:52:34.737Z,62.13
2022-11-24T16:55:08.063Z,61.36
2022-11-24T16:57:39.551Z,61.28
2022-11-24T17:00:12.008Z,60.75
2022-11-24T17:02:43.551Z,60.31
2022-11-24T17:05:15.190Z,60.65
2022-11-24T17:07:46.936Z,59.90
2022-11-24T17:10:18.464Z,60.26
2022-11-24T17:12:50.110Z,60.24
2022-11-24T17:15:42.805Z,59.39
2022-11-24T17:18:24.334Z,60.10
2022-11-24T17:21:05.975Z,58.70
2022-11-24T17:23:41.009Z,59.75
2022-11-24T17:26:20.034Z,57.80
2022-11-24T17:28:51.622Z,58.62
2022-11-24T17:31:28.720Z,57.91
2022-11-24T17:34:01.713Z,58.70
2022-11-24T17:36:35.358Z,57.99
2022-11-24T17:39:12.551Z,57.51
2022-11-24T17:41:43.937Z,58.15
2022-11-24T17:44:15.385Z,57.49
2022-11-24T17:46:47.217Z,57.25
2022-11-24T17:49:19.887Z,57.50
2022-11-24T17:51:52.024Z,56.82
2022-11-24T17:57:14.894Z,57.83
2022-11-24T17:59:46.411Z,56.52
2022-11-24T18:02:18.006Z,56.86
2022-11-24T18:04:49.787Z,57.44
2022-11-24T18:07:21.177Z,56.35
2022-11-24T18:09:52.641Z,56.46
2022-11-24T18:12:24.227Z,57.28
2022-11-24T18:14:56.531Z,57.14
2022-11-24T18:17:28.370Z,56.04
2022-11-24T18:20:00.264Z,55.56
2022-11-24T18:22:57.949Z,56.27
2022-11-24T18:25:23.527Z,56.02
2022-11-24T18:27:54.851Z,55.53
2022-11-24T18:30:26.414Z,56.03
2022-11-24T18:33:00.107Z,56.03
2022-11-24T18:35:31.522Z,55.40
2022-11-24T18:38:02.870Z,55.63
2022-11-24T18:40:34.417Z,56.02
2022-11-24T18:43:05.865Z,55.71
2022-11-24T18:45:40.022Z,55.74
2022-11-24T18:48:12.639Z,55.14
2022-11-24T18:50:44.377Z,55.83
2022-11-24T18:53:15.704Z,55.77
2022-11-24T18:55:55.528Z,55.49
2022-11-24T18:58:28.857Z,54.69
2022-11-24T19:01:17.697Z,54.06
2022-11-24T19:03:51.813Z,54.66
2022-11-24T19:06:43.325Z,54.02
2022-11-24T19:09:21.887Z,54.68
2022-11-24T19:11:53.525Z,55.09
2022-11-24T19:14:25.296Z,55.42
2022-11-24T19:16:57.022Z,55.08
2022-11-24T19:19:29.955Z,54.85
2022-11-24T19:22:01.579Z,54.55
2022-11-24T19:24:33.464Z,54.26
2022-11-24T19:27:05.282Z,54.91
2022-11-24T19:29:41.734Z,54.59
2022-11-24T19:32:14.575Z,54.59
2022-11-24T19:34:46.286Z,54.49
2022-11-24T19:37:17.858Z,54.37
2022-11-24T19:39:49.523Z,54.42
2022-11-24T19:42:21.217Z,54.84
2022-11-24T19:44:56.387Z,54.39
2022-11-24T19:47:29.331Z,54.47
2022-11-24T19:50:01.595Z,54.53
2022-11-24T19:52:34.342Z,54.58
2022-11-24T19:55:06.534Z,54.47
2022-11-24T19:57:38.007Z,55.17
2022-11-24T20:00:11.107Z,54.76
2022-11-24T20:02:42.542Z,55.07
2022-11-24T20:05:14.189Z,55.29
2022-11-24T20:07:46.006Z,54.46
2022-11-24T20:10:17.581Z,54.22
2022-11-24T20:12:49.003Z,55.29
2022-11-24T20:15:22.149Z,54.98
2022-11-24T20:17:54.059Z,54.77
2022-11-24T20:20:25.647Z,54.23
2022-11-24T20:22:57.359Z,54.67
2022-11-24T20:25:28.980Z,53.87
2022-11-24T20:28:00.405Z,53.86
2022-11-24T20:30:31.850Z,53.52
2022-11-24T20:33:03.540Z,53.54
2022-11-24T20:35:35.393Z,53.80
2022-11-24T20:38:06.925Z,53.69
2022-11-24T20:40:38.292Z,53.01
2022-11-24T20:43:09.950Z,53.59
2022-11-24T20:45:41.331Z,53.87
2022-11-24T20:48:13.305Z,53.22
2022-11-24T20:50:49.781Z,52.74
2022-11-24T20:53:22.677Z,52.83
2022-11-24T20:55:54.082Z,52.67
2022-11-24T20:58:25.783Z,53.38
2022-11-24T21:00:57.460Z,53.20
2022-11-24T21:03:29.010Z,52.80
2022-11-24T21:06:00.694Z,52.96
2022-11-24T21:08:35.574Z,51.92
2022-11-24T21:11:08.633Z,52.38
2022-11-24T21:13:41.638Z,52.60
2022-11-24T21:16:18.683Z,51.71
2022-11-24T21:18:52.476Z,52.54
2022-11-24T21:21:25.744Z,52.67
2022-11-24T21:23:57.312Z,52.42
2022-11-24T21:26:28.744Z,52.53
2022-11-24T21:29:00.751Z,52.63
2022-11-24T21:31:32.471Z,52.96
2022-11-24T21:34:04.606Z,52.75
2022-11-24T21:36:37.339Z,52.82
2022-11-24T21:39:08.971Z,52.62
2022-11-24T21:41:41.031Z,52.39
2022-11-24T21:44:14.944Z,51.61
2022-11-24T21:46:52.595Z,51.98
2022-11-24T21:49:27.005Z,51.27
2022-11-24T21:51:58.358Z,52.20
2022-11-24T21:54:29.738Z,51.80
2022-11-24T21:57:01.228Z,52.21
2022-11-24T21:59:32.987Z,52.05
2022-11-24T22:02:06.728Z,50.87
2022-11-24T22:04:42.097Z,51.58
2022-11-24T22:07:13.630Z,51.29
2022-11-24T22:09:45.383Z,51.20
2022-11-24T22:12:16.672Z,51.23
2022-11-24T22:14:47.995Z,51.35
2022-11-24T22:17:19.265Z,50.78
2022-11-24T22:19:51.093Z,51.07
2022-11-24T22:22:22.349Z,50.99
2022-11-24T22:24:53.628Z,50.82
2022-11-24T22:27:25.518Z,50.53
2022-11-24T22:29:56.783Z,50.73
2022-11-24T22:32:28.093Z,50.64
2022-11-24T22:34:59.349Z,50.75
2022-11-24T22:37:30.699Z,50.82
2022-11-24T22:40:02.383Z,50.00
2022-11-24T22:42:34.316Z,49.81
2022-11-24T22:45:05.817Z,50.52
2022-11-24T22:47:37.184Z,50.23
2022-11-24T22:50:09.265Z,50.38
2022-11-24T22:52:41.900Z,50.62
2022-11-24T22:55:13.188Z,49.87
2022-11-24T22:57:48.107Z,50.29
2022-11-24T23:00:20.213Z,50.17
2022-11-24T23:02:51.551Z,49.76
2022-11-24T23:05:22.861Z,50.61
2022-11-24T23:07:54.566Z,51.58
2022-11-24T23:10:26.087Z,52.10
2022-11-24T23:12:57.759Z,53.02
2022-11-24T23:15:29.324Z,53.67
2022-11-24T23:18:00.943Z,54.46
2022-11-24T23:20:32.513Z,55.35
2022-11-24T23:23:04.343Z,56.04
2022-11-24T23:25:36.437Z,62.35
2022-11-24T23:28:08.277Z,68.03
2022-11-24T23:30:39.627Z,70.58
2022-11-24T23:33:11.357Z,73.41
2022-11-24T23:35:42.744Z,74.22
2022-11-24T23:38:14.283Z,74.46
2022-11-24T23:40:45.951Z,75.02
2022-11-24T23:43:17.255Z,75.30
2022-11-24T23:45:48.534Z,75.77
2022-11-24T23:48:19.999Z,75.96
2022-11-24T23:50:51.601Z,75.88
2022-11-24T23:53:23.937Z,76.02
2022-11-24T23:55:58.629Z,75.55
2022-11-24T23:58:30.435Z,76.49
